Time;durP1;ratioP1;P1;durP2;ratioP2;P2;SDS_P1;SDS_P2;PMS_P1;PMS_P2;Temp;Humidity;BMP_temperature;BMP_pressure;BME280_temperature;BME280_humidity;BME280_pressure;Samples;Min_cycle;Max_cycle;Signal;HPM_P1;HPM_P2
2021/12/28 00:00:27;;;;;;;24.88;13.27;;;5.00;94.00;;;;;;5021874;28;20075;-80
2021/12/28 00:02:54;;;;;;;19.83;10.85;;;5.00;94.00;;;;;;5003173;28;20052;-80
2021/12/28 00:05:20;;;;;;;23.20;11.40;;;5.00;94.00;;;;;;5007925;28;20105;-79
2021/12/28 00:07:46;;;;;;;18.27;10.85;;;5.00;94.00;;;;;;5024217;28;20033;-79
2021/12/28 00:10:12;;;;;;;26.83;13.82;;;5.00;94.00;;;;;;5018878;28;20098;-78
2021/12/28 00:12:38;;;;;;;24.10;11.95;;;5.00;94.00;;;;;;5017106;28;20060;-78
2021/12/28 00:18:03;;;;;;;23.83;11.63;;;5.00;94.10;;;;;;4956046;28;20048;-78
2021/12/28 00:20:37;;;;;;;19.50;11.57;;;5.00;94.00;;;;;;5017868;28;20591;-80
2021/12/28 00:23:06;;;;;;;20.60;12.70;;;5.00;94.10;;;;;;5019078;28;20033;-79
2021/12/28 00:25:32;;;;;;;19.55;11.27;;;5.00;94.40;;;;;;5003388;28;21114;-79
2021/12/28 00:27:57;;;;;;;20.58;11.15;;;5.00;94.10;;;;;;5017218;28;20050;-79
2021/12/28 00:30:23;;;;;;;19.80;10.82;;;5.00;94.10;;;;;;5016489;28;20053;-79
2021/12/28 00:32:52;;;;;;;18.27;10.13;;;5.00;94.10;;;;;;5019080;28;20384;-79
2021/12/28 00:35:38;;;;;;;21.02;10.55;;;5.00;94.10;;;;;;5021086;28;20109;-79
2021/12/28 00:38:04;;;;;;;23.48;11.63;;;5.00;94.10;;;;;;5020752;28;20038;-78
2021/12/28 00:40:29;;;;;;;18.23;10.48;;;5.00;94.10;;;;;;5016249;28;20058;-79
2021/12/28 00:42:55;;;;;;;19.20;10.45;;;5.00;94.10;;;;;;5016462;28;20126;-78
2021/12/28 00:45:20;;;;;;;18.73;10.10;;;5.00;94.10;;;;;;5010064;28;20055;-80
2021/12/28 00:47:46;;;;;;;19.75;10.55;;;5.00;94.10;;;;;;5017104;28;20040;-79
2021/12/28 00:50:13;;;;;;;19.85;9.95;;;5.00;94.10;;;;;;5002909;28;20048;-78
2021/12/28 00:52:39;;;;;;;19.70;10.63;;;5.00;94.10;;;;;;5001002;28;20040;-80
2021/12/28 00:55:05;;;;;;;17.75;9.93;;;5.10;94.20;;;;;;5008462;28;20041;-78
2021/12/28 00:57:31;;;;;;;17.95;9.30;;;5.00;94.10;;;;;;5019781;28;20056;-80
2021/12/28 00:59:56;;;;;;;20.92;11.68;;;5.00;94.10;;;;;;4996268;28;20211;-79
2021/12/28 01:02:22;;;;;;;20.92;11.15;;;5.00;94.10;;;;;;5015500;28;20045;-78
2021/12/28 01:04:47;;;;;;;25.27;11.65;;;5.00;94.10;;;;;;5037486;28;20067;-78
2021/12/28 01:07:13;;;;;;;24.38;12.32;;;5.00;94.10;;;;;;4988012;28;20570;-79
2021/12/28 01:09:41;;;;;;;18.90;10.13;;;5.00;94.10;;;;;;5037754;28;20116;-80
2021/12/28 01:12:07;;;;;;;18.73;10.93;;;5.00;94.10;;;;;;5038178;28;20580;-79
2021/12/28 01:14:32;;;;;;;19.33;10.38;;;5.00;94.10;;;;;;5022355;28;20447;-78
2021/12/28 01:17:01;;;;;;;21.27;10.60;;;5.00;94.10;;;;;;5002886;28;20545;-79
2021/12/28 01:19:26;;;;;;;15.82;8.68;;;5.00;94.10;;;;;;5049031;28;20119;-78
2021/12/28 01:21:52;;;;;;;17.33;9.77;;;5.00;94.10;;;;;;5010847;28;20124;-78
2021/12/28 01:24:18;;;;;;;18.38;9.77;;;5.00;94.10;;;;;;5018153;28;20516;-79
2021/12/28 01:26:44;;;;;;;16.73;9.55;;;5.00;94.10;;;;;;5003515;28;20053;-79
2021/12/28 01:29:10;;;;;;;15.05;8.75;;;5.00;94.10;;;;;;5017136;28;20045;-78
2021/12/28 01:31:37;;;;;;;19.52;9.98;;;5.00;94.10;;;;;;5027895;28;20051;-78
2021/12/28 01:34:06;;;;;;;17.75;9.48;;;5.00;94.10;;;;;;5024262;28;20037;-79
2021/12/28 01:36:32;;;;;;;14.10;7.72;;;5.00;94.10;;;;;;5024169;28;20144;-79
2021/12/28 01:38:57;;;;;;;15.18;8.50;;;5.00;94.10;;;;;;5020359;28;20128;-78
2021/12/28 01:41:23;;;;;;;17.10;8.40;;;5.00;94.10;;;;;;5011984;28;20040;-78
2021/12/28 01:43:55;;;;;;;18.42;10.07;;;5.00;94.10;;;;;;5049659;28;20107;-78
2021/12/28 01:46:20;;;;;;;12.75;7.63;;;5.00;94.10;;;;;;5021186;28;20033;-78
2021/12/28 01:48:46;;;;;;;13.55;8.27;;;5.00;94.10;;;;;;5036644;28;20036;-80
2021/12/28 01:51:14;;;;;;;16.75;9.20;;;5.00;94.10;;;;;;5026106;28;20319;-78
2021/12/28 01:53:39;;;;;;;14.77;8.88;;;5.00;94.10;;;;;;5004048;28;20045;-78
2021/12/28 01:56:09;;;;;;;14.02;8.07;;;5.00;94.10;;;;;;5018936;28;20442;-78
2021/12/28 01:58:35;;;;;;;16.83;8.55;;;5.00;94.40;;;;;;5009296;28;20485;-78
2021/12/28 02:01:00;;;;;;;17.42;8.90;;;4.90;94.10;;;;;;5020111;28;20045;-78
2021/12/28 02:03:27;;;;;;;13.57;8.05;;;5.00;94.10;;;;;;5033272;28;20041;-79
2021/12/28 02:05:52;;;;;;;14.35;8.40;;;5.00;94.10;;;;;;5011917;28;20239;-78
2021/12/28 02:08:18;;;;;;;15.02;8.57;;;4.90;94.10;;;;;;5033977;28;20505;-79
2021/12/28 02:10:45;;;;;;;17.63;8.45;;;5.00;94.10;;;;;;4989715;28;20044;-78
2021/12/28 02:13:10;;;;;;;14.25;7.80;;;5.00;94.10;;;;;;4985244;28;20036;-79
2021/12/28 02:15:36;;;;;;;17.75;8.50;;;5.00;94.10;;;;;;5015528;28;20037;-78
2021/12/28 02:18:06;;;;;;;14.95;8.35;;;5.00;94.10;;;;;;5017230;28;20080;-78
2021/12/28 02:20:31;;;;;;;17.55;9.07;;;4.90;94.10;;;;;;5017962;28;20123;-80
2021/12/28 02:22:57;;;;;;;14.65;7.90;;;4.90;94.10;;;;;;5033501;28;20621;-79
2021/12/28 02:25:22;;;;;;;14.68;8.55;;;4.90;94.10;;;;;;5012957;28;20162;-78
2021/12/28 02:27:48;;;;;;;16.42;8.82;;;4.90;94.10;;;;;;5020816;28;20025;-78
2021/12/28 02:30:16;;;;;;;16.60;8.73;;;4.90;94.10;;;;;;5012082;28;20148;-79
2021/12/28 02:32:43;;;;;;;22.08;9.90;;;4.90;94.10;;;;;;5003072;28;20036;-78
2021/12/28 02:35:10;;;;;;;13.18;8.55;;;4.90;94.10;;;;;;5009416;28;20037;-78
2021/12/28 02:37:36;;;;;;;18.80;9.48;;;4.90;94.10;;;;;;4995344;28;20056;-79
2021/12/28 02:40:02;;;;;;;18.58;9.43;;;5.00;94.10;;;;;;5022146;28;20114;-78
2021/12/28 02:42:32;;;;;;;17.52;8.65;;;4.90;94.10;;;;;;4999938;28;20037;-78
2021/12/28 02:44:58;;;;;;;17.63;9.13;;;4.90;94.10;;;;;;5007098;28;20037;-78
2021/12/28 02:47:23;;;;;;;13.25;7.65;;;5.00;94.10;;;;;;5020436;28;20040;-78
2021/12/28 02:49:49;;;;;;;18.48;9.60;;;4.90;94.10;;;;;;5022181;28;20029;-78
2021/12/28 02:52:15;;;;;;;16.52;9.48;;;4.90;94.10;;;;;;5017876;28;20442;-78
2021/12/28 02:54:40;;;;;;;15.90;8.70;;;4.90;94.10;;;;;;5052468;28;20041;-79
2021/12/28 02:57:06;;;;;;;19.38;9.55;;;4.90;94.10;;;;;;5003340;28;20035;-79
2021/12/28 02:59:31;;;;;;;20.80;9.85;;;4.90;94.10;;;;;;5014847;28;20048;-79
2021/12/28 03:01:57;;;;;;;18.38;9.77;;;4.90;94.10;;;;;;5021461;28;20041;-79
2021/12/28 03:04:24;;;;;;;22.88;10.27;;;4.90;94.10;;;;;;5016094;28;20155;-79
2021/12/28 03:06:50;;;;;;;16.40;8.88;;;4.90;94.10;;;;;;5017001;28;20033;-78
2021/12/28 03:09:18;;;;;;;17.00;8.88;;;4.90;94.10;;;;;;5001510;28;20049;-79
2021/12/28 03:11:44;;;;;;;17.98;8.98;;;4.90;94.10;;;;;;5033522;28;20036;-79
2021/12/28 03:14:09;;;;;;;16.20;9.20;;;4.90;94.10;;;;;;5023119;28;20467;-79
2021/12/28 03:16:35;;;;;;;16.38;8.70;;;4.90;94.10;;;;;;5023074;28;20171;-79
2021/12/28 03:19:01;;;;;;;20.25;10.05;;;4.90;94.10;;;;;;5023921;28;20033;-79
2021/12/28 03:21:27;;;;;;;20.25;9.80;;;4.90;94.10;;;;;;5020881;28;20404;-79
2021/12/28 03:23:52;;;;;;;18.75;10.55;;;4.90;94.10;;;;;;5020395;28;20037;-79
2021/12/28 03:26:18;;;;;;;18.33;10.10;;;4.90;94.10;;;;;;5011693;28;20044;-78
2021/12/28 03:28:44;;;;;;;18.35;9.10;;;4.90;94.10;;;;;;5012117;28;20041;-78
2021/12/28 03:31:18;;;;;;;20.02;9.57;;;4.90;94.10;;;;;;5009134;28;20039;-78
2021/12/28 03:33:45;;;;;;;18.73;9.65;;;4.90;94.10;;;;;;5021377;28;20036;-79
2021/12/28 03:36:10;;;;;;;19.40;9.60;;;4.90;94.10;;;;;;5004525;28;20037;-79
2021/12/28 03:38:36;;;;;;;18.45;8.70;;;4.90;94.10;;;;;;5022825;28;20048;-78
2021/12/28 03:41:07;;;;;;;17.02;9.55;;;4.90;94.10;;;;;;5023429;28;20033;-79
2021/12/28 03:43:33;;;;;;;19.38;8.93;;;4.90;94.10;;;;;;5016529;28;20136;-79
2021/12/28 03:45:58;;;;;;;19.00;9.63;;;4.90;94.10;;;;;;5017755;28;20132;-79
2021/12/28 03:48:24;;;;;;;13.95;7.97;;;4.90;94.10;;;;;;5004289;28;20076;-78
2021/12/28 03:50:49;;;;;;;17.10;8.82;;;4.90;94.10;;;;;;5028307;28;20039;-79
2021/12/28 03:53:15;;;;;;;18.63;9.63;;;4.90;94.10;;;;;;5024060;28;20062;-79
2021/12/28 03:55:40;;;;;;;18.77;10.38;;;4.90;94.10;;;;;;5008194;28;20060;-78
2021/12/28 03:58:06;;;;;;;16.85;9.68;;;4.90;94.10;;;;;;5011013;28;20049;-79
2021/12/28 04:00:35;;;;;;;13.10;7.25;;;4.90;94.10;;;;;;5038016;28;20041;-78
2021/12/28 04:03:01;;;;;;;21.50;9.93;;;4.90;94.10;;;;;;5020072;28;20110;-79
2021/12/28 04:05:26;;;;;;;15.68;8.25;;;4.90;94.10;;;;;;5038304;28;20387;-79
2021/12/28 04:07:52;;;;;;;22.85;10.52;;;4.90;94.10;;;;;;5043709;28;20090;-78
2021/12/28 04:10:19;;;;;;;22.45;10.35;;;4.90;94.10;;;;;;5035314;28;20037;-79
2021/12/28 04:12:44;;;;;;;20.65;9.50;;;4.90;94.10;;;;;;5021914;28;20032;-79
2021/12/28 04:15:12;;;;;;;19.58;10.30;;;4.90;94.10;;;;;;5012389;28;20027;-79
2021/12/28 04:17:38;;;;;;;21.75;10.80;;;4.90;94.10;;;;;;5023475;28;20090;-79
2021/12/28 04:20:12;;;;;;;20.10;9.23;;;4.90;94.10;;;;;;5017248;28;20046;-79
2021/12/28 04:22:38;;;;;;;20.50;9.35;;;4.90;94.20;;;;;;5022918;28;20462;-78
2021/12/28 04:25:04;;;;;;;22.80;10.25;;;4.90;94.10;;;;;;5005767;28;20492;-79
2021/12/28 04:27:30;;;;;;;27.67;11.82;;;4.90;94.10;;;;;;5005638;28;20036;-79
2021/12/28 04:29:55;;;;;;;19.98;10.10;;;4.90;94.10;;;;;;5028025;28;20091;-79
2021/12/28 04:32:21;;;;;;;18.15;9.00;;;4.90;94.20;;;;;;5021980;28;20033;-78
2021/12/28 04:34:47;;;;;;;20.55;10.27;;;4.90;94.20;;;;;;5020504;28;20048;-79
2021/12/28 04:37:12;;;;;;;22.15;10.73;;;4.90;94.10;;;;;;5019674;28;20615;-79
2021/12/28 04:39:38;;;;;;;23.38;11.00;;;4.90;94.10;;;;;;5010098;28;20035;-79
2021/12/28 04:42:04;;;;;;;27.15;11.85;;;4.90;94.10;;;;;;4996445;28;20751;-78
2021/12/28 04:44:29;;;;;;;22.25;10.50;;;4.90;94.10;;;;;;5020949;28;20037;-81
2021/12/28 04:46:55;;;;;;;21.73;10.48;;;4.90;94.20;;;;;;5001998;28;20043;-78
2021/12/28 04:49:22;;;;;;;20.38;9.85;;;4.90;94.20;;;;;;5003246;28;20060;-79
2021/12/28 04:51:48;;;;;;;17.58;9.43;;;4.90;94.20;;;;;;5006206;28;20036;-79
2021/12/28 04:54:15;;;;;;;21.63;10.00;;;4.90;94.20;;;;;;5020675;28;20036;-79
2021/12/28 04:56:40;;;;;;;26.00;10.88;;;4.90;94.10;;;;;;4996854;28;20053;-80
2021/12/28 04:59:06;;;;;;;18.42;9.38;;;4.90;94.10;;;;;;5021784;28;20059;-79
2021/12/28 05:01:31;;;;;;;23.52;9.93;;;4.90;94.20;;;;;;5006624;28;20064;-79
2021/12/28 05:03:57;;;;;;;21.35;9.63;;;4.90;94.10;;;;;;5007947;28;20044;-79
2021/12/28 05:06:22;;;;;;;23.17;10.77;;;4.90;94.10;;;;;;5021416;28;20706;-80
2021/12/28 05:08:48;;;;;;;131.43;55.05;;;4.90;94.10;;;;;;5015084;28;20519;-78
2021/12/28 05:11:14;;;;;;;40.10;18.80;;;4.90;94.10;;;;;;5017707;28;20041;-78
2021/12/28 05:13:40;;;;;;;35.15;14.05;;;4.80;94.10;;;;;;5016030;28;20042;-78
2021/12/28 05:16:06;;;;;;;24.40;10.75;;;4.90;94.10;;;;;;5013802;28;20032;-78
2021/12/28 05:18:32;;;;;;;24.83;10.27;;;4.90;94.20;;;;;;5020131;28;20415;-78
2021/12/28 05:20:57;;;;;;;27.25;11.02;;;4.90;94.20;;;;;;5013545;28;20037;-78
2021/12/28 05:23:23;;;;;;;24.85;10.82;;;4.90;94.20;;;;;;5013330;28;20065;-79
2021/12/28 05:25:48;;;;;;;25.63;11.10;;;4.90;94.20;;;;;;5011810;28;20132;-79
2021/12/28 05:28:14;;;;;;;25.20;10.80;;;4.90;94.20;;;;;;4976027;28;21869;-78
2021/12/28 05:30:40;;;;;;;26.88;11.18;;;4.90;94.20;;;;;;5028840;28;20403;-78
2021/12/28 05:33:05;;;;;;;30.10;11.68;;;4.90;94.20;;;;;;4996532;28;20029;-79
2021/12/28 05:35:31;;;;;;;28.38;11.32;;;4.90;94.20;;;;;;5017083;28;20032;-79
2021/12/28 05:37:56;;;;;;;21.73;9.95;;;4.90;94.20;;;;;;5000562;28;20034;-79
2021/12/28 05:40:22;;;;;;;57.70;28.33;;;4.90;94.20;;;;;;4996129;28;20615;-79
2021/12/28 05:42:50;;;;;;;36.58;13.95;;;4.80;94.40;;;;;;5003538;28;20021;-78
2021/12/28 05:45:16;;;;;;;27.23;12.02;;;4.80;94.20;;;;;;4996786;28;20511;-78
2021/12/28 05:47:41;;;;;;;28.23;11.98;;;4.80;94.20;;;;;;5018516;28;20037;-79
2021/12/28 05:50:10;;;;;;;20.85;9.77;;;4.80;94.20;;;;;;5000479;28;20064;-79
2021/12/28 05:52:36;;;;;;;24.20;10.55;;;4.90;94.20;;;;;;5027075;28;20648;-78
2021/12/28 05:55:02;;;;;;;22.75;10.05;;;4.90;94.20;;;;;;5017752;28;20037;-80
2021/12/28 05:57:27;;;;;;;30.15;11.57;;;4.80;94.20;;;;;;5003688;28;20496;-79
2021/12/28 05:59:53;;;;;;;26.27;11.50;;;4.90;94.20;;;;;;5021698;28;20047;-79
2021/12/28 06:02:18;;;;;;;36.03;12.52;;;4.90;94.20;;;;;;5018979;28;20027;-79
2021/12/28 06:04:44;;;;;;;62.15;42.95;;;4.90;94.20;;;;;;5003927;28;20458;-80
2021/12/28 06:07:09;;;;;;;36.50;17.80;;;4.80;94.20;;;;;;4995275;28;20047;-78
2021/12/28 06:09:35;;;;;;;31.50;13.45;;;4.90;94.20;;;;;;5028353;28;20040;-79
2021/12/28 06:12:02;;;;;;;25.17;11.75;;;4.90;94.20;;;;;;5020577;28;20116;-79
2021/12/28 06:14:27;;;;;;;29.17;12.20;;;4.90;94.20;;;;;;5027206;28;20051;-79
2021/12/28 06:16:53;;;;;;;26.27;11.40;;;4.90;94.20;;;;;;5010021;28;20086;-79
2021/12/28 06:19:19;;;;;;;25.80;11.98;;;4.90;94.20;;;;;;5043365;28;20168;-79
2021/12/28 06:21:45;;;;;;;30.92;13.15;;;4.90;94.20;;;;;;5023368;28;20112;-79
2021/12/28 06:24:10;;;;;;;29.02;11.90;;;4.80;94.20;;;;;;5050761;28;20052;-79
2021/12/28 06:26:36;;;;;;;27.42;11.18;;;4.90;94.30;;;;;;5011194;28;20494;-79
2021/12/28 06:29:04;;;;;;;23.98;10.85;;;4.90;94.20;;;;;;5017581;28;20033;-80
2021/12/28 06:31:29;;;;;;;28.10;11.15;;;4.90;94.20;;;;;;5018416;28;20033;-80
2021/12/28 06:33:56;;;;;;;25.55;11.23;;;4.90;94.20;;;;;;5032249;28;20033;-79
2021/12/28 06:36:22;;;;;;;24.25;10.80;;;4.90;94.20;;;;;;4999272;28;20072;-79
2021/12/28 06:38:47;;;;;;;28.30;11.07;;;4.90;94.20;;;;;;5012335;28;20069;-79
2021/12/28 06:41:13;;;;;;;26.10;10.65;;;4.90;94.20;;;;;;5039853;28;20598;-79
2021/12/28 06:43:38;;;;;;;24.58;11.82;;;4.90;94.20;;;;;;5036017;28;20090;-80
2021/12/28 06:46:04;;;;;;;22.00;10.93;;;4.90;94.20;;;;;;5033107;28;20036;-79
2021/12/28 06:48:29;;;;;;;25.85;11.65;;;4.90;94.30;;;;;;5039115;28;20087;-79
2021/12/28 06:50:55;;;;;;;20.30;10.38;;;4.90;94.20;;;;;;5007464;28;20029;-79
2021/12/28 06:53:20;;;;;;;20.65;10.55;;;4.80;94.20;;;;;;5006500;28;20391;-80
2021/12/28 06:55:46;;;;;;;18.80;9.27;;;4.90;94.20;;;;;;5033361;28;20516;-79
2021/12/28 06:58:12;;;;;;;20.90;10.30;;;4.90;94.20;;;;;;5008854;28;20114;-81
2021/12/28 07:00:38;;;;;;;22.88;10.30;;;4.90;94.20;;;;;;5029251;28;20036;-80
2021/12/28 07:03:04;;;;;;;20.42;10.98;;;4.90;94.30;;;;;;5032344;28;20045;-79
2021/12/28 07:05:30;;;;;;;23.80;12.02;;;4.90;94.30;;;;;;5009257;28;20511;-79
2021/12/28 07:07:55;;;;;;;26.25;12.07;;;4.80;94.20;;;;;;5027727;28;20041;-79
2021/12/28 07:10:21;;;;;;;27.75;12.48;;;4.80;94.30;;;;;;5018099;28;20081;-79
2021/12/28 07:12:50;;;;;;;24.95;12.32;;;4.80;94.30;;;;;;5035777;28;20018;-79
2021/12/28 07:15:16;;;;;;;22.60;11.23;;;4.90;94.30;;;;;;5020905;28;20041;-79
2021/12/28 07:17:41;;;;;;;24.00;12.88;;;4.90;94.30;;;;;;4997372;28;20045;-79
2021/12/28 07:20:08;;;;;;;26.85;12.63;;;4.80;94.30;;;;;;5031141;28;20053;-79
2021/12/28 07:22:34;;;;;;;22.35;11.75;;;4.90;94.30;;;;;;5026318;28;20066;-80
2021/12/28 07:24:59;;;;;;;23.73;12.05;;;4.90;94.30;;;;;;5012539;28;20033;-79
2021/12/28 07:27:25;;;;;;;21.77;11.40;;;4.90;94.30;;;;;;5017649;28;20111;-79
2021/12/28 07:29:51;;;;;;;21.38;11.82;;;4.90;94.30;;;;;;5035646;28;20219;-79
2021/12/28 07:32:16;;;;;;;23.35;11.73;;;4.90;94.30;;;;;;5040562;28;20037;-79
2021/12/28 07:34:42;;;;;;;22.58;12.02;;;4.90;94.30;;;;;;5007598;28;20049;-79
2021/12/28 07:37:07;;;;;;;22.98;12.00;;;4.90;94.30;;;;;;5033948;28;20037;-80
2021/12/28 07:39:33;;;;;;;21.55;11.65;;;4.90;94.30;;;;;;5034921;28;20044;-79
2021/12/28 07:41:58;;;;;;;23.35;12.63;;;4.90;94.30;;;;;;5027032;28;20033;-79
2021/12/28 07:44:24;;;;;;;19.23;10.38;;;4.90;94.30;;;;;;5032065;28;20116;-80
2021/12/28 07:46:50;;;;;;;22.00;11.57;;;4.90;94.30;;;;;;5008849;28;20251;-79
2021/12/28 07:49:15;;;;;;;23.63;11.88;;;4.90;94.30;;;;;;5000467;28;20115;-80
2021/12/28 07:51:41;;;;;;;24.05;11.20;;;4.90;94.30;;;;;;5033357;28;20048;-79
2021/12/28 07:54:06;;;;;;;20.67;11.65;;;4.90;94.30;;;;;;5008395;28;20545;-79
2021/12/28 07:56:32;;;;;;;20.95;11.82;;;4.90;94.30;;;;;;5005124;28;20059;-79
2021/12/28 07:58:57;;;;;;;21.10;10.75;;;4.90;94.30;;;;;;5019373;28;20033;-79
2021/12/28 08:01:23;;;;;;;22.23;12.68;;;4.90;94.30;;;;;;5027699;28;20120;-79
2021/12/28 08:03:48;;;;;;;29.20;15.55;;;4.90;94.30;;;;;;5026662;28;20048;-79
2021/12/28 08:06:14;;;;;;;28.33;14.88;;;4.90;94.30;;;;;;5005617;28;20069;-79
2021/12/28 08:08:39;;;;;;;26.52;14.95;;;4.90;94.30;;;;;;5004026;28;20048;-79
2021/12/28 08:11:05;;;;;;;37.45;20.15;;;4.90;94.30;;;;;;5003778;28;20036;-79
2021/12/28 08:13:30;;;;;;;52.33;26.75;;;4.90;94.30;;;;;;5002401;28;20045;-79
2021/12/28 08:15:56;;;;;;;45.45;22.27;;;4.90;94.30;;;;;;5023904;28;20033;-80
2021/12/28 08:18:22;;;;;;;34.95;17.48;;;4.90;94.30;;;;;;5019886;28;20045;-80
2021/12/28 08:20:47;;;;;;;57.08;30.20;;;4.90;94.30;;;;;;5022582;28;20037;-79
2021/12/28 08:23:14;;;;;;;53.63;25.60;;;4.90;94.30;;;;;;5015130;28;20660;-80
2021/12/28 08:25:40;;;;;;;30.98;16.45;;;4.90;94.30;;;;;;5001647;28;20679;-81
2021/12/28 08:28:06;;;;;;;33.33;19.33;;;4.90;94.30;;;;;;5037922;28;20029;-82
2021/12/28 08:30:35;;;;;;;30.50;15.73;;;4.90;94.30;;;;;;5023058;28;20036;-80
2021/12/28 08:33:04;;;;;;;29.48;16.20;;;4.90;94.30;;;;;;5017791;28;20040;-80
2021/12/28 08:35:29;;;;;;;26.05;13.90;;;5.00;94.30;;;;;;5023314;28;20033;-80
2021/12/28 08:37:55;;;;;;;41.03;20.20;;;5.00;94.40;;;;;;5035538;28;20033;-80
2021/12/28 08:40:20;;;;;;;33.85;17.60;;;5.00;94.30;;;;;;5051782;28;20451;-80
2021/12/28 08:42:46;;;;;;;16.02;9.07;;;4.90;94.30;;;;;;5042436;28;20395;-80
2021/12/28 08:45:12;;;;;;;12.20;6.72;;;5.00;94.40;;;;;;4995835;28;20515;-80
2021/12/28 08:47:37;;;;;;;22.35;11.57;;;5.00;94.40;;;;;;5007310;28;20039;-79
2021/12/28 08:50:05;;;;;;;10.77;5.60;;;5.10;94.50;;;;;;5007250;28;20473;-79
2021/12/28 08:52:31;;;;;;;12.32;5.68;;;5.10;94.50;;;;;;5030098;28;20033;-79
2021/12/28 08:54:56;;;;;;;10.85;5.93;;;5.20;94.50;;;;;;5014779;28;20043;-81
2021/12/28 08:57:22;;;;;;;11.55;4.50;;;5.30;94.60;;;;;;5021988;28;20048;-80
2021/12/28 08:59:47;;;;;;;6.30;4.32;;;5.30;94.60;;;;;;5019748;28;20029;-81
2021/12/28 09:02:13;;;;;;;5.95;4.13;;;5.40;94.70;;;;;;5023517;28;20033;-80
2021/12/28 09:04:43;;;;;;;11.20;5.50;;;5.50;94.70;;;;;;5009358;28;20048;-80
2021/12/28 09:07:09;;;;;;;8.40;4.43;;;5.60;94.70;;;;;;5007460;28;20048;-80
2021/12/28 09:09:35;;;;;;;10.02;5.00;;;5.60;94.70;;;;;;5009043;28;20056;-81
2021/12/28 09:12:00;;;;;;;12.98;5.45;;;5.70;94.70;;;;;;5028807;28;20030;-81
2021/12/28 09:14:26;;;;;;;10.32;5.22;;;5.70;94.70;;;;;;5006747;28;20037;-80
2021/12/28 09:16:51;;;;;;;12.88;5.82;;;5.80;94.70;;;;;;5010174;28;20379;-80
2021/12/28 09:19:17;;;;;;;10.40;5.28;;;5.90;94.80;;;;;;5044355;28;20040;-81
2021/12/28 09:21:42;;;;;;;15.35;8.48;;;5.90;94.80;;;;;;5004955;28;20043;-80
2021/12/28 09:24:08;;;;;;;16.35;8.32;;;5.90;94.80;;;;;;5010634;28;20039;-80
2021/12/28 09:26:34;;;;;;;14.88;6.93;;;5.90;94.70;;;;;;5031674;28;20040;-80
2021/12/28 09:29:00;;;;;;;12.38;5.30;;;6.00;94.80;;;;;;5021076;28;20114;-80
2021/12/28 09:31:25;;;;;;;10.55;5.03;;;6.00;94.80;;;;;;4997451;28;20037;-80
2021/12/28 09:33:51;;;;;;;7.65;4.07;;;6.00;94.80;;;;;;5047173;28;20090;-80
2021/12/28 09:36:17;;;;;;;8.70;5.13;;;6.10;94.90;;;;;;5006804;28;20112;-80
2021/12/28 09:38:43;;;;;;;9.50;5.43;;;6.10;94.90;;;;;;5018961;28;20037;-80
2021/12/28 09:41:09;;;;;;;7.80;4.88;;;6.20;94.90;;;;;;5004369;28;20028;-81
2021/12/28 09:43:36;;;;;;;10.73;4.90;;;6.20;94.90;;;;;;5024813;28;20091;-80
2021/12/28 09:46:01;;;;;;;9.52;4.10;;;6.30;94.90;;;;;;5020793;28;20059;-81
2021/12/28 09:48:27;;;;;;;9.43;3.90;;;6.30;94.90;;;;;;4976037;28;20037;-81
2021/12/28 09:50:52;;;;;;;7.47;4.05;;;6.40;95.00;;;;;;5006200;28;20041;-81
2021/12/28 09:53:18;;;;;;;8.75;4.13;;;6.40;94.90;;;;;;5018559;28;20048;-80
2021/12/28 09:55:44;;;;;;;8.52;4.72;;;6.50;94.90;;;;;;5025170;28;20098;-79
2021/12/28 09:58:09;;;;;;;8.77;4.25;;;6.50;94.90;;;;;;5021174;28;20120;-80
2021/12/28 10:00:35;;;;;;;10.00;4.20;;;6.50;94.90;;;;;;5037758;28;20041;-80
2021/12/28 10:03:01;;;;;;;6.88;4.60;;;6.60;94.90;;;;;;5006782;28;20087;-80
2021/12/28 10:05:26;;;;;;;7.22;4.25;;;6.60;94.90;;;;;;4998085;28;20401;-80
2021/12/28 10:07:57;;;;;;;6.47;4.55;;;6.60;94.90;;;;;;5013130;28;20029;-79
2021/12/28 10:10:32;;;;;;;9.18;4.40;;;6.70;95.00;;;;;;5006796;28;20593;-79
2021/12/28 10:13:00;;;;;;;9.60;4.28;;;6.70;95.00;;;;;;5015474;28;20124;-79
2021/12/28 10:15:27;;;;;;;7.95;4.07;;;6.70;94.90;;;;;;5017485;28;20044;-79
2021/12/28 10:17:54;;;;;;;6.93;4.32;;;6.80;95.00;;;;;;5016067;28;20329;-79
2021/12/28 10:20:26;;;;;;;6.78;3.67;;;6.80;95.00;;;;;;5012780;28;20124;-80
2021/12/28 10:22:53;;;;;;;5.85;3.63;;;6.80;95.00;;;;;;5043162;28;20025;-79
2021/12/28 10:25:24;;;;;;;4.78;3.55;;;6.90;95.00;;;;;;5018919;28;20037;-79
2021/12/28 10:27:53;;;;;;;5.18;3.63;;;6.90;95.00;;;;;;4987248;28;20519;-79
2021/12/28 10:30:25;;;;;;;19.02;9.85;;;6.90;95.00;;;;;;5018589;28;20079;-78
2021/12/28 10:32:51;;;;;;;;;;;7.00;95.00;;;;;;5033524;28;20087;-78
2021/12/28 10:35:20;;;;;;;10.27;6.15;;;7.00;95.00;;;;;;5022557;28;19916;-78
2021/12/28 10:37:51;;;;;;;17.95;10.57;;;7.10;95.00;;;;;;5013818;28;20123;-79
2021/12/28 10:40:23;;;;;;;11.90;8.48;;;7.10;95.00;;;;;;5002619;28;20033;-79
2021/12/28 10:42:53;;;;;;;6.30;3.90;;;7.10;95.00;;;;;;5015031;28;20393;-78
2021/12/28 10:45:22;;;;;;;7.63;4.00;;;7.20;95.00;;;;;;5018072;28;20040;-78
2021/12/28 10:47:49;;;;;;;4.88;3.47;;;7.20;95.00;;;;;;5016094;28;20041;-78
2021/12/28 10:50:21;;;;;;;4.72;3.00;;;7.30;95.10;;;;;;5007438;28;20570;-78
2021/12/28 10:52:51;;;;;;;6.45;3.72;;;7.30;95.10;;;;;;5020469;28;20041;-78
2021/12/28 10:55:17;;;;;;;6.90;3.58;;;7.40;95.10;;;;;;5017521;28;20105;-78
2021/12/28 10:57:42;;;;;;;6.70;3.95;;;7.40;95.10;;;;;;5023373;28;20037;-79
2021/12/28 11:00:29;;;;;;;7.10;3.35;;;7.50;95.10;;;;;;5022124;28;20079;-78
2021/12/28 11:03:13;;;;;;;4.03;2.85;;;7.50;95.20;;;;;;5006912;28;20065;-78
2021/12/28 11:05:38;;;;;;;5.70;4.28;;;7.60;95.20;;;;;;5025268;28;20049;-79
2021/12/28 11:08:07;;;;;;;5.78;4.82;;;7.60;95.10;;;;;;5017525;28;20037;-79
2021/12/28 11:10:33;;;;;;;4.55;3.47;;;7.70;95.10;;;;;;5015658;28;20523;-79
2021/12/28 11:12:58;;;;;;;3.13;2.13;;;7.70;95.10;;;;;;5023519;28;20041;-78
2021/12/28 11:15:25;;;;;;;2.20;1.70;;;7.70;95.10;;;;;;5017428;28;20039;-78
2021/12/28 11:17:51;;;;;;;3.40;2.15;;;7.80;95.10;;;;;;5018648;28;20033;-78
2021/12/28 11:20:17;;;;;;;2.58;1.48;;;7.90;95.20;;;;;;5013394;28;20111;-79
2021/12/28 11:23:06;;;;;;;1.25;1.15;;;7.90;95.10;;;;;;5016104;28;20033;-79
2021/12/28 11:25:32;;;;;;;4.93;1.88;;;8.00;95.20;;;;;;5018967;28;21202;-79
2021/12/28 11:28:18;;;;;;;2.28;0.90;;;8.10;95.20;;;;;;5019901;28;20030;-78
2021/12/28 11:31:01;;;;;;;3.35;2.22;;;8.10;95.20;;;;;;5011050;28;20041;-78
2021/12/28 11:33:26;;;;;;;8.25;4.88;;;8.20;95.20;;;;;;5041995;28;20718;-79
2021/12/28 11:35:52;;;;;;;9.68;4.40;;;8.30;95.10;;;;;;5018030;28;20075;-78
2021/12/28 11:38:17;;;;;;;8.25;3.92;;;8.30;95.10;;;;;;5018021;28;20041;-79
2021/12/28 11:40:43;;;;;;;4.40;2.60;;;8.30;95.10;;;;;;5019249;28;20104;-80
2021/12/28 11:43:08;;;;;;;3.10;1.77;;;8.30;95.10;;;;;;5023900;28;20038;-78
2021/12/28 11:45:34;;;;;;;2.47;1.88;;;8.30;95.10;;;;;;5018691;28;20081;-79
2021/12/28 11:48:00;;;;;;;4.18;2.70;;;8.40;95.10;;;;;;5019723;28;20100;-79
2021/12/28 11:50:25;;;;;;;5.03;3.40;;;8.40;95.10;;;;;;5047271;28;20351;-78
2021/12/28 11:52:52;;;;;;;2.03;1.20;;;8.40;95.10;;;;;;5022844;28;20491;-79
2021/12/28 11:55:18;;;;;;;5.28;3.67;;;8.50;95.10;;;;;;5012826;28;20041;-79
2021/12/28 11:57:51;;;;;;;3.95;2.78;;;8.50;95.10;;;;;;5007328;28;20037;-78
2021/12/28 12:00:19;;;;;;;2.40;1.90;;;8.60;95.10;;;;;;5009751;28;20029;-79
2021/12/28 12:02:49;;;;;;;2.45;1.98;;;8.60;95.10;;;;;;5020092;28;20048;-79
2021/12/28 12:05:18;;;;;;;5.38;2.50;;;8.60;95.10;;;;;;5000257;28;20045;-79
2021/12/28 12:07:44;;;;;;;3.85;2.78;;;8.70;95.10;;;;;;5016686;28;20048;-78
2021/12/28 12:10:17;;;;;;;4.38;3.15;;;8.70;95.10;;;;;;5018433;28;20044;-78
2021/12/28 12:12:43;;;;;;;2.08;1.85;;;8.80;95.50;;;;;;4998020;28;20427;-79
2021/12/28 12:15:13;;;;;;;4.75;2.63;;;8.80;95.10;;;;;;5031833;28;20033;-78
2021/12/28 12:17:39;;;;;;;3.38;2.67;;;8.80;95.00;;;;;;5016210;28;20747;-78
2021/12/28 12:20:06;;;;;;;6.13;3.90;;;8.90;95.00;;;;;;4990790;28;20040;-79
2021/12/28 12:22:32;;;;;;;3.60;2.50;;;8.90;95.10;;;;;;5024667;28;20087;-78
2021/12/28 12:24:58;;;;;;;2.08;1.63;;;8.90;95.00;;;;;;5022367;28;20037;-78
2021/12/28 12:27:46;;;;;;;5.70;3.10;;;8.90;95.00;;;;;;5012473;28;20385;-79
2021/12/28 12:30:18;;;;;;;1.67;1.33;;;9.00;95.10;;;;;;5022781;28;20045;-78
2021/12/28 12:33:01;;;;;;;2.00;1.80;;;9.00;95.00;;;;;;5018318;28;20423;-78
2021/12/28 12:35:40;;;;;;;2.80;2.10;;;9.00;95.00;;;;;;5019645;28;20040;-79
2021/12/28 12:38:12;;;;;;;2.85;2.28;;;9.10;95.00;;;;;;5023968;28;20519;-78
2021/12/28 12:41:11;;;;;;;3.15;2.22;;;9.00;94.90;;;;;;5028673;28;20061;-78
2021/12/28 12:43:37;;;;;;;3.28;2.33;;;9.10;95.00;;;;;;5030092;28;20047;-78
2021/12/28 12:46:09;;;;;;;3.20;1.25;;;9.10;95.30;;;;;;5034436;28;20028;-78